createdAt,value
2019-03-01T00:04:49.767Z,74.82
2019-03-01T00:07:56.270Z,75.53
2019-03-01T00:11:02.899Z,76.32
2019-03-01T00:14:09.275Z,76.91
2019-03-01T00:17:15.976Z,77.27
2019-03-01T00:19:56.185Z,77.93
2019-03-01T00:22:36.376Z,78.40
2019-03-01T00:25:43.026Z,77.94
2019-03-01T00:28:43.243Z,78.68
2019-03-01T00:31:23.779Z,79.33
2019-03-01T00:34:18.552Z,79.64
2019-03-01T00:37:25.227Z,79.87
2019-03-01T00:40:31.626Z,79.37
2019-03-01T00:43:39.021Z,79.96
2019-03-01T00:46:07.717Z,80.61
2019-03-01T00:48:35.581Z,81.12
2019-03-01T00:51:03.597Z,80.86
2019-03-01T00:53:31.811Z,81.13
2019-03-01T00:56:00.360Z,81.46
2019-03-01T00:58:29.227Z,81.51
2019-03-01T01:00:57.765Z,80.93
2019-03-01T01:03:26.106Z,81.08
2019-03-01T01:05:54.311Z,81.09
2019-03-01T01:08:22.579Z,81.42
2019-03-01T01:10:50.938Z,82.10
2019-03-01T01:13:19.322Z,82.08
2019-03-01T01:15:47.759Z,83.03
2019-03-01T01:18:16.271Z,82.80
2019-03-01T01:20:44.907Z,83.34
2019-03-01T01:23:13.510Z,83.21
2019-03-01T01:25:42.080Z,83.35
2019-03-01T01:28:09.527Z,83.01
2019-03-01T01:30:38.122Z,82.89
2019-03-01T01:33:06.429Z,82.92
2019-03-01T01:35:35.095Z,83.54
2019-03-01T01:38:03.673Z,83.99
2019-03-01T01:40:31.931Z,84.48
2019-03-01T01:43:00.560Z,85.12
2019-03-01T01:45:29.088Z,85.60
2019-03-01T01:47:57.327Z,85.65
2019-03-01T01:50:25.501Z,84.80
2019-03-01T01:52:53.710Z,84.67
2019-03-01T01:55:21.642Z,84.73
2019-03-01T01:57:50.245Z,85.14
2019-03-01T02:00:18.534Z,84.63
2019-03-01T02:02:46.791Z,85.02
2019-03-01T02:05:14.923Z,85.26
2019-03-01T02:07:43.235Z,84.60
2019-03-01T02:10:11.858Z,83.99
2019-03-01T02:12:40.143Z,84.20
2019-03-01T02:18:29.690Z,84.22
2019-03-01T02:20:57.887Z,84.03
2019-03-01T02:23:26.126Z,85.09
2019-03-01T02:25:54.426Z,85.95
2019-03-01T02:28:22.410Z,86.72
2019-03-01T02:30:50.410Z,86.96
2019-03-01T02:33:18.588Z,86.74
2019-03-01T02:35:46.841Z,85.43
2019-03-01T02:38:15.568Z,86.21
2019-03-01T02:40:44.142Z,86.92
2019-03-01T02:43:12.758Z,87.75
2019-03-01T02:45:40.665Z,87.24
2019-03-01T02:48:08.552Z,87.62
2019-03-01T02:50:37.178Z,87.48
2019-03-01T02:53:05.446Z,87.75
2019-03-01T02:55:33.349Z,87.51
2019-03-01T02:58:02.053Z,87.42
2019-03-01T03:00:29.633Z,87.82
2019-03-01T03:02:58.280Z,88.04
2019-03-01T03:05:26.996Z,88.64
2019-03-01T03:08:14.676Z,89.01
2019-03-01T03:10:43.584Z,89.06
2019-03-01T03:13:11.163Z,88.69
2019-03-01T03:18:36.789Z,88.50
2019-03-01T03:21:05.407Z,89.03
2019-03-01T03:23:33.653Z,89.70
2019-03-01T03:26:02.177Z,90.39
2019-03-01T03:28:30.157Z,90.45
2019-03-01T03:31:17.439Z,90.61
2019-03-01T03:33:45.691Z,90.93
2019-03-01T03:36:14.415Z,90.95
2019-03-01T03:38:42.967Z,90.99
2019-03-01T03:41:11.699Z,90.51
2019-03-01T03:43:51.120Z,90.79
2019-03-01T03:46:19.820Z,90.64
2019-03-01T03:48:47.996Z,90.56
2019-03-01T03:51:16.555Z,89.84
2019-03-01T03:53:45.277Z,89.79
2019-03-01T03:56:13.552Z,89.78
2019-03-01T03:58:41.822Z,89.95
2019-03-01T04:01:10.538Z,90.00
2019-03-01T04:03:39.045Z,90.00
2019-03-01T04:06:07.208Z,89.93
2019-03-01T04:08:35.896Z,90.36
2019-03-01T04:11:04.176Z,90.51
2019-03-01T04:13:32.336Z,90.83
2019-03-01T04:16:00.929Z,91.00
2019-03-01T04:18:29.168Z,90.95
2019-03-01T04:20:57.748Z,91.44
2019-03-01T04:23:25.670Z,91.45
2019-03-01T04:25:54.439Z,91.34
2019-03-01T04:28:22.362Z,91.76
2019-03-01T04:30:50.195Z,91.58
2019-03-01T04:33:18.404Z,91.41
2019-03-01T04:35:46.686Z,91.57
2019-03-01T04:38:14.973Z,91.87
2019-03-01T04:40:43.247Z,91.82
2019-03-01T04:43:12.054Z,91.25
2019-03-01T04:48:36.552Z,91.76
2019-03-01T04:51:05.219Z,91.56
2019-03-01T04:53:33.647Z,91.62
2019-03-01T04:56:01.486Z,91.12
2019-03-01T04:58:30.076Z,91.46
2019-03-01T05:00:58.454Z,91.51
2019-03-01T05:03:26.645Z,91.26
2019-03-01T05:05:54.825Z,91.40
2019-03-01T05:08:23.358Z,90.85
2019-03-01T05:10:51.607Z,89.70
2019-03-01T05:13:20.201Z,89.92
2019-03-01T05:15:48.682Z,89.72
2019-03-01T05:18:17.261Z,89.03
2019-03-01T05:24:06.772Z,89.25
2019-03-01T05:26:34.708Z,89.41
2019-03-01T05:29:03.224Z,89.57
2019-03-01T05:31:31.801Z,89.73
2019-03-01T05:34:00.512Z,90.02
2019-03-01T05:36:29.268Z,90.00
2019-03-01T05:38:57.911Z,90.01
2019-03-01T05:41:25.421Z,90.16
2019-03-01T05:43:53.982Z,90.53
2019-03-01T05:46:22.700Z,90.73
2019-03-01T05:48:50.269Z,91.00
2019-03-01T05:51:18.647Z,90.82
2019-03-01T05:53:47.209Z,90.75
2019-03-01T05:56:14.693Z,90.94
2019-03-01T05:58:45.713Z,90.73
2019-03-01T06:01:35.581Z,90.85
2019-03-01T06:04:10.133Z,90.98
2019-03-01T06:07:16.847Z,91.23
2019-03-01T06:10:23.328Z,91.00
2019-03-01T06:13:29.704Z,90.98
2019-03-01T06:16:36.364Z,90.94
2019-03-01T06:19:42.986Z,91.28
2019-03-01T06:22:49.612Z,91.48
2019-03-01T06:25:56.342Z,91.15
2019-03-01T06:28:49.924Z,91.37
2019-03-01T06:31:42.238Z,91.12
2019-03-01T06:34:48.923Z,91.61
2019-03-01T06:37:55.629Z,91.00
2019-03-01T06:41:21.557Z,91.40
2019-03-01T06:44:27.675Z,90.75
2019-03-01T06:47:34.367Z,90.29
2019-03-01T06:50:21.760Z,90.45
2019-03-01T06:52:49.644Z,90.11
2019-03-01T06:55:38.285Z,89.26
2019-03-01T06:58:08.411Z,89.47
2019-03-01T07:03:35.878Z,89.85
2019-03-01T07:06:03.830Z,90.09
2019-03-01T07:08:32.449Z,89.61
2019-03-01T07:11:00.304Z,88.50
2019-03-01T07:13:28.600Z,88.94
2019-03-01T07:15:56.168Z,88.70
2019-03-01T07:18:36.127Z,89.09
2019-03-01T07:21:16.163Z,89.80
2019-03-01T07:23:44.457Z,90.16
2019-03-01T07:26:12.336Z,90.16
2019-03-01T07:28:40.603Z,90.01
2019-03-01T07:31:09.194Z,90.30
2019-03-01T07:33:37.163Z,89.96
2019-03-01T07:36:05.159Z,91.10
2019-03-01T07:38:33.408Z,90.50
2019-03-01T07:41:01.696Z,89.81
2019-03-01T07:43:29.973Z,90.22
2019-03-01T07:45:57.571Z,89.71
2019-03-01T07:51:26.962Z,90.37
2019-03-01T07:53:55.740Z,90.80
2019-03-01T07:56:23.600Z,90.42
2019-03-01T07:58:51.989Z,90.61
2019-03-01T08:01:20.593Z,89.96
2019-03-01T08:03:52.293Z,90.51
2019-03-01T08:09:27.408Z,90.63
2019-03-01T08:15:15.873Z,90.92
2019-03-01T08:17:44.467Z,90.83
2019-03-01T08:20:13.864Z,90.00
2019-03-01T08:22:48.444Z,89.88
2019-03-01T08:25:23.736Z,90.15
2019-03-01T08:27:55.375Z,89.71
2019-03-01T08:30:22.939Z,89.33
2019-03-01T08:32:51.441Z,89.61
2019-03-01T08:35:19.809Z,90.03
2019-03-01T08:38:06.882Z,89.95
2019-03-01T08:40:35.188Z,90.44
2019-03-01T08:43:03.078Z,90.79
2019-03-01T08:45:32.906Z,90.33
2019-03-01T08:48:07.481Z,90.81
2019-03-01T08:50:35.938Z,91.04
2019-03-01T08:53:03.982Z,90.88
2019-03-01T08:55:35.662Z,90.09
2019-03-01T08:58:06.799Z,89.73
2019-03-01T09:00:40.095Z,89.67
2019-03-01T09:03:28.788Z,90.52
2019-03-01T09:05:57.450Z,90.60
2019-03-01T09:08:36.897Z,89.64
2019-03-01T09:11:23.790Z,89.39
2019-03-01T09:13:52.111Z,89.41
2019-03-01T09:19:22.395Z,88.95
2019-03-01T09:22:01.199Z,88.41
2019-03-01T09:24:30.035Z,88.28
2019-03-01T09:27:06.265Z,88.62
2019-03-01T09:29:41.306Z,89.14
2019-03-01T09:32:10.548Z,88.78
2019-03-01T09:34:38.768Z,89.50
2019-03-01T09:37:07.073Z,89.00
2019-03-01T09:39:35.356Z,88.94
2019-03-01T09:42:06.123Z,88.30
2019-03-01T09:44:42.943Z,86.41
2019-03-01T09:47:11.163Z,87.04
2019-03-01T09:49:39.815Z,87.76
2019-03-01T09:52:08.327Z,87.53
2019-03-01T09:54:36.603Z,86.94
2019-03-01T09:57:04.974Z,86.95
2019-03-01T09:59:32.937Z,86.62
2019-03-01T10:02:01.675Z,87.27
2019-03-01T10:04:29.909Z,87.70
2019-03-01T10:06:58.366Z,87.62
2019-03-01T10:09:26.303Z,86.91
2019-03-01T10:11:54.905Z,88.03
2019-03-01T10:14:23.515Z,87.76
2019-03-01T10:16:54.732Z,87.16
2019-03-01T10:19:22.896Z,87.83
2019-03-01T10:21:51.485Z,88.45
2019-03-01T10:24:19.778Z,88.44
2019-03-01T10:26:48.383Z,88.91
2019-03-01T10:29:16.847Z,88.53
2019-03-01T10:31:44.793Z,89.00
2019-03-01T10:34:13.327Z,89.41
2019-03-01T10:36:41.833Z,89.41
2019-03-01T10:45:36.945Z,89.04
2019-03-01T10:48:05.194Z,89.07
2019-03-01T10:50:33.413Z,89.45
2019-03-01T10:53:02.155Z,89.45
2019-03-01T10:55:30.435Z,89.08
2019-03-01T10:57:58.612Z,89.39
2019-03-01T11:00:27.015Z,89.06
2019-03-01T11:02:55.742Z,89.33
2019-03-01T11:06:03.988Z,89.73
2019-03-01T11:08:32.131Z,89.48
2019-03-01T11:11:00.559Z,89.71
2019-03-01T11:13:29.338Z,88.73
2019-03-01T11:15:57.223Z,88.41
2019-03-01T11:18:25.487Z,89.01
2019-03-01T11:20:53.780Z,88.84
2019-03-01T11:23:22.325Z,89.05
2019-03-01T11:25:50.255Z,88.71
2019-03-01T11:28:18.767Z,88.58
2019-03-01T11:30:47.456Z,89.42
2019-03-01T11:33:15.884Z,89.88
2019-03-01T11:35:44.621Z,90.19
2019-03-01T11:38:12.937Z,89.98
2019-03-01T11:40:40.859Z,89.78
2019-03-01T11:43:09.134Z,90.29
2019-03-01T11:45:37.830Z,88.92
2019-03-01T11:48:06.668Z,89.04
2019-03-01T11:50:35.456Z,88.70
2019-03-01T11:53:03.798Z,88.93
2019-03-01T11:55:31.696Z,90.11
2019-03-01T11:58:00.049Z,90.33
2019-03-01T12:00:28.364Z,90.15
2019-03-01T12:02:56.627Z,90.99
2019-03-01T12:05:25.217Z,91.56
2019-03-01T12:10:56.030Z,90.97
2019-03-01T12:13:24.722Z,91.63
2019-03-01T12:19:02.158Z,91.92
2019-03-01T12:21:30.424Z,92.04
2019-03-01T12:24:29.969Z,91.92
2019-03-01T12:26:57.499Z,91.35
2019-03-01T12:30:06.197Z,90.93
2019-03-01T12:32:34.628Z,91.42
2019-03-01T12:35:02.663Z,90.32
2019-03-01T12:37:31.263Z,90.25
2019-03-01T12:39:59.886Z,89.86
2019-03-01T12:42:28.144Z,90.38
2019-03-01T12:44:56.499Z,90.62
2019-03-01T12:47:25.092Z,90.25
2019-03-01T12:49:53.876Z,90.80
2019-03-01T12:52:22.465Z,90.15
2019-03-01T12:54:51.140Z,89.05
2019-03-01T12:57:19.764Z,90.00
2019-03-01T12:59:48.269Z,90.03
2019-03-01T13:02:16.824Z,88.63
2019-03-01T13:04:45.632Z,89.32
2019-03-01T13:07:14.037Z,89.23
2019-03-01T13:09:41.641Z,89.36
2019-03-01T13:12:09.119Z,89.79
2019-03-01T13:14:39.525Z,89.94
2019-03-01T13:17:14.003Z,90.21
2019-03-01T13:20:21.930Z,89.98
2019-03-01T13:22:50.564Z,90.46
2019-03-01T13:25:18.530Z,90.88
2019-03-01T13:27:48.814Z,90.30
2019-03-01T13:30:23.950Z,89.59
2019-03-01T13:32:51.939Z,90.33
2019-03-01T13:35:22.205Z,90.25
2019-03-01T13:37:56.770Z,90.94
2019-03-01T13:40:33.612Z,91.31
2019-03-01T13:46:03.029Z,92.14
2019-03-01T13:48:31.625Z,92.51
2019-03-01T13:50:59.983Z,92.86
2019-03-01T13:54:09.012Z,92.99
2019-03-01T13:56:56.760Z,93.27
2019-03-01T13:59:24.703Z,92.81
2019-03-01T14:01:52.910Z,91.77
2019-03-01T14:04:20.511Z,92.30
2019-03-01T14:06:49.168Z,92.51
2019-03-01T14:09:17.665Z,91.99
2019-03-01T14:11:46.334Z,91.84
2019-03-01T14:14:14.258Z,91.52
2019-03-01T14:16:42.788Z,91.38
2019-03-01T14:19:11.318Z,91.26
2019-03-01T14:25:11.652Z,90.95
2019-03-01T14:27:39.666Z,91.70
2019-03-01T14:30:10.006Z,91.69
2019-03-01T14:32:38.337Z,91.87
2019-03-01T14:35:07.030Z,92.37
2019-03-01T14:40:36.730Z,93.26
2019-03-01T14:43:05.192Z,93.42
2019-03-01T14:45:33.212Z,93.72
2019-03-01T14:48:42.997Z,93.63
2019-03-01T14:51:18.231Z,93.82
2019-03-01T14:53:46.524Z,93.32
2019-03-01T14:56:22.357Z,93.16
2019-03-01T14:59:35.131Z,93.36
2019-03-01T15:02:43.822Z,92.89
2019-03-01T15:05:17.771Z,92.58
2019-03-01T15:14:12.314Z,88.94
2019-03-01T15:16:39.253Z,87.72
2019-03-01T15:19:08.057Z,88.23
2019-03-01T15:21:44.484Z,88.37
2019-03-01T15:24:12.523Z,89.03
2019-03-01T15:26:40.726Z,89.23
2019-03-01T15:29:08.919Z,89.60
2019-03-01T15:31:37.644Z,89.80
2019-03-01T15:34:05.554Z,90.00
2019-03-01T15:36:33.850Z,90.23
2019-03-01T15:39:04.045Z,90.07
2019-03-01T15:41:32.475Z,89.79
2019-03-01T15:44:01.203Z,90.41
2019-03-01T15:46:29.454Z,90.38
2019-03-01T15:48:57.613Z,90.70
2019-03-01T15:51:26.358Z,90.57
2019-03-01T15:53:57.690Z,90.89
2019-03-01T15:56:30.335Z,90.88
2019-03-01T15:58:58.290Z,91.25
2019-03-01T16:01:26.625Z,90.84
2019-03-01T16:03:57.168Z,90.95
2019-03-01T16:06:34.451Z,91.38
2019-03-01T16:09:15.213Z,91.19
2019-03-01T16:11:43.784Z,91.17
2019-03-01T16:14:11.659Z,91.30
2019-03-01T16:16:39.531Z,91.36
2019-03-01T16:19:11.103Z,91.56
2019-03-01T16:21:39.816Z,91.37
2019-03-01T16:24:18.110Z,91.24
2019-03-01T16:26:46.678Z,91.90
2019-03-01T16:29:15.229Z,91.71
2019-03-01T16:31:43.854Z,91.69
2019-03-01T16:34:11.850Z,91.09
2019-03-01T16:36:42.842Z,90.80
2019-03-01T16:39:12.501Z,90.98
2019-03-01T16:41:42.900Z,91.31
2019-03-01T16:44:19.615Z,91.41
2019-03-01T16:46:47.981Z,91.36
2019-03-01T16:49:16.280Z,91.30
2019-03-01T16:51:44.461Z,91.12
2019-03-01T16:54:16.303Z,91.37
2019-03-01T16:56:52.780Z,91.75
2019-03-01T16:59:32.910Z,91.02
2019-03-01T17:02:06.197Z,90.78
2019-03-01T17:04:38.083Z,91.06
2019-03-01T17:07:06.300Z,91.34
2019-03-01T17:09:34.657Z,90.91
2019-03-01T17:12:03.279Z,91.00
2019-03-01T17:14:34.915Z,90.59
2019-03-01T17:17:12.417Z,90.60
2019-03-01T17:19:40.863Z,90.83
2019-03-01T17:22:09.079Z,90.79
2019-03-01T17:24:37.442Z,90.70
2019-03-01T17:27:06.773Z,90.66
2019-03-01T17:29:45.899Z,91.07
2019-03-01T17:32:14.181Z,90.74
2019-03-01T17:34:42.445Z,90.75
2019-03-01T17:37:10.956Z,91.41
2019-03-01T17:40:09.996Z,91.51
2019-03-01T17:45:20.956Z,91.13
2019-03-01T17:48:29.628Z,91.12
2019-03-01T17:51:05.158Z,90.52
2019-03-01T17:53:33.871Z,90.42
2019-03-01T17:56:02.152Z,90.07
2019-03-01T18:01:40.302Z,90.79
2019-03-01T18:04:09.029Z,90.71
2019-03-01T18:06:37.630Z,90.78
2019-03-01T18:09:06.427Z,91.08
2019-03-01T18:11:34.408Z,91.20
2019-03-01T18:14:03.134Z,90.81
2019-03-01T18:16:31.054Z,90.52
2019-03-01T18:18:59.359Z,90.71
2019-03-01T18:21:28.123Z,90.92
2019-03-01T18:23:56.838Z,91.29
2019-03-01T18:26:24.933Z,91.01
2019-03-01T18:28:53.448Z,91.28
2019-03-01T18:31:22.226Z,91.33
2019-03-01T18:33:49.843Z,91.33
2019-03-01T18:36:18.222Z,91.55
2019-03-01T18:38:46.572Z,91.58
2019-03-01T18:41:14.487Z,91.34
2019-03-01T18:43:45.877Z,91.48
2019-03-01T18:46:20.605Z,91.74
2019-03-01T18:49:00.312Z,90.79
2019-03-01T18:51:28.592Z,90.57
2019-03-01T18:53:56.591Z,90.75
2019-03-01T18:56:28.334Z,90.95
2019-03-01T18:59:00.303Z,91.10
2019-03-01T19:01:28.744Z,90.87
2019-03-01T19:03:58.947Z,90.98
2019-03-01T19:06:33.678Z,91.05
2019-03-01T19:09:03.766Z,90.84
2019-03-01T19:11:34.667Z,91.16
2019-03-01T19:14:08.581Z,90.78
2019-03-01T19:16:36.795Z,90.65
2019-03-01T19:19:16.438Z,89.79
2019-03-01T19:21:44.104Z,89.95
2019-03-01T19:24:12.884Z,90.27
2019-03-01T19:26:41.195Z,90.60
2019-03-01T19:29:09.456Z,90.34
2019-03-01T19:31:37.082Z,90.32
2019-03-01T19:34:45.744Z,90.45
2019-03-01T19:37:14.541Z,90.45
2019-03-01T19:39:54.137Z,90.53
2019-03-01T19:42:22.083Z,89.77
2019-03-01T19:44:50.553Z,89.85
2019-03-01T19:47:18.108Z,89.80
2019-03-01T19:49:48.643Z,90.07
2019-03-01T19:52:22.846Z,90.17
2019-03-01T19:54:51.344Z,89.88
2019-03-01T19:57:20.014Z,89.82
2019-03-01T19:59:49.621Z,89.89
2019-03-01T20:02:27.831Z,90.02
2019-03-01T20:05:01.655Z,90.04
2019-03-01T20:07:29.523Z,89.53
2019-03-01T20:09:57.849Z,89.77
2019-03-01T20:12:25.873Z,89.65
2019-03-01T20:14:54.172Z,89.65
2019-03-01T20:17:22.682Z,89.62
2019-03-01T20:19:53.602Z,89.78
2019-03-01T20:22:27.232Z,89.36
2019-03-01T20:24:55.228Z,89.30
2019-03-01T20:27:24.080Z,89.22
2019-03-01T20:29:53.454Z,89.34
2019-03-01T20:32:21.962Z,89.62
2019-03-01T20:34:50.370Z,89.40
2019-03-01T20:37:18.728Z,89.55
2019-03-01T20:39:47.394Z,89.72
2019-03-01T20:42:24.539Z,89.80
2019-03-01T20:44:53.947Z,89.67
2019-03-01T20:47:23.056Z,89.98
2019-03-01T20:49:51.043Z,89.64
2019-03-01T20:52:19.363Z,89.85
2019-03-01T20:54:47.936Z,90.35
2019-03-01T20:57:16.679Z,90.55
2019-03-01T20:59:46.824Z,90.77
2019-03-01T21:02:15.934Z,91.16
2019-03-01T21:04:56.155Z,91.43
2019-03-01T21:07:24.071Z,91.77
2019-03-01T21:09:52.651Z,91.60
2019-03-01T21:12:21.371Z,91.45
2019-03-01T21:18:12.410Z,91.54
2019-03-01T21:20:40.620Z,91.93
2019-03-01T21:23:11.772Z,91.53
2019-03-01T21:25:45.233Z,91.72
2019-03-01T21:28:13.826Z,92.35
2019-03-01T21:30:41.988Z,92.85
2019-03-01T21:33:10.663Z,93.44
2019-03-01T21:35:39.301Z,93.34
2019-03-01T21:38:10.649Z,93.58
2019-03-01T21:41:24.099Z,93.69
2019-03-01T21:43:52.199Z,93.84
2019-03-01T21:46:20.574Z,93.07
2019-03-01T21:48:48.784Z,93.17
2019-03-01T21:51:18.514Z,92.79
2019-03-01T21:53:52.627Z,92.57
2019-03-01T21:56:20.652Z,92.81
2019-03-01T21:58:49.348Z,92.91
2019-03-01T22:01:17.548Z,93.10
2019-03-01T22:03:45.834Z,93.31
2019-03-01T22:06:14.420Z,92.58
2019-03-01T22:08:44.861Z,92.72
2019-03-01T22:11:20.974Z,92.95
2019-03-01T22:13:50.293Z,92.89
2019-03-01T22:16:19.775Z,92.78
2019-03-01T22:18:49.075Z,92.43
2019-03-01T22:21:37.597Z,92.77
2019-03-01T22:27:46.902Z,93.13
2019-03-01T22:30:27.995Z,93.23
2019-03-01T22:36:05.292Z,92.57
2019-03-01T22:38:37.600Z,92.75
2019-03-01T22:41:04.825Z,92.61
2019-03-01T22:44:24.971Z,92.43
2019-03-01T22:46:53.779Z,92.88
2019-03-01T22:49:22.413Z,92.63
2019-03-01T22:51:52.910Z,92.65
2019-03-01T22:54:20.768Z,92.64
2019-03-01T22:56:49.540Z,92.95
2019-03-01T22:59:25.799Z,93.06
2019-03-01T23:01:56.615Z,93.11
2019-03-01T23:04:26.570Z,92.56
2019-03-01T23:07:01.771Z,92.01
2019-03-01T23:09:30.247Z,92.36
2019-03-01T23:11:58.894Z,92.08
2019-03-01T23:14:30.700Z,92.55
2019-03-01T23:17:03.569Z,92.41
2019-03-01T23:19:43.887Z,91.84
2019-03-01T23:22:12.547Z,91.51
2019-03-01T23:24:40.928Z,91.82
2019-03-01T23:27:09.505Z,92.03
2019-03-01T23:29:37.328Z,91.80
2019-03-01T23:32:05.611Z,91.73
2019-03-01T23:34:33.812Z,91.68
2019-03-01T23:37:03.570Z,91.61
2019-03-01T23:39:31.985Z,90.76
2019-03-01T23:42:00.393Z,90.62
2019-03-01T23:44:28.659Z,90.99
2019-03-01T23:46:59.524Z,91.12
2019-03-01T23:49:55.696Z,91.20
2019-03-01T23:52:30.511Z,90.87
2019-03-01T23:54:59.692Z,91.22
2019-03-01T23:57:28.329Z,91.27
